Главная страница
METAR-TAF:

METAR-TAF

Аэропорты :

Чэнду, Китай

Шуанлю

широта: 30-40N, долгота: 104-01E, высота над уровнем моря: 508 м

Текущие метеонаблюдения

Эта сводка был подготовлена 42 минут назад, в 21:00 UTC
Штиль
Температура 16°C
Влажность 94%
Давление 1015 hPa
Видимость 10 км и более
Отдельные облака на высоте 5000 фута

METAR: ZUUU 252100Z 00000MPS 9999 SCT050 16/15 Q1015 NOSIG

Время: 05:42 (21:42 UTC)

Прогноз

Эта сводка был подготовлена 7 часа и 41 минут назад, в 14:01 UTC
Прогноз действительный с 25-го 18 UTC до 26-го 18 UTC
Ветер 6 Узел от юго-западный
Видимость: 5000 м
Отдельные облака на высоте 5000 фута
дымка

TAF: ZUUU 251401Z 2518/2618 22003MPS 5000 BR SCT050 TX27/2607Z TN16/2522Z

Метеонаблюдения и прогнозы для более 4000 аэропортов (сводки METAR и TAF).

Имеющиеся станции представлены на карте желтыми и красными точками.

Чтобы увидеть название станции, наведите на нее мышь.

Затем щелкните, чтобы увидеть метеонаблюдения и метеопрогнозы.

Управление картой: чтобы увеличить масштаб, щелкните зеленые кнопки с черным крестиком; чтобы уменьшить масштаб, щелкните зеленую кнопку с тире; для просмотра соседних карт щелкайте зеленые стрелки.


METAR-TAF: